createdAt,value
2022-09-21T00:00:02.981Z,8.10
2022-09-21T00:01:03.059Z,8.50
2022-09-21T00:02:03.115Z,8.50
2022-09-21T00:03:03.029Z,8.40
2022-09-21T00:04:03.048Z,8.00
2022-09-21T00:05:03.054Z,7.90
2022-09-21T00:06:03.068Z,8.10
2022-09-21T00:07:03.085Z,8.00
2022-09-21T00:08:03.098Z,8.10
2022-09-21T00:09:03.121Z,7.90
2022-09-21T00:10:03.127Z,8.20
2022-09-21T00:11:03.162Z,8.60
2022-09-21T00:12:03.158Z,8.00
2022-09-21T00:13:03.172Z,8.00
2022-09-21T00:14:03.186Z,7.90
2022-09-21T00:15:03.203Z,7.50
2022-09-21T00:16:03.217Z,8.00
2022-09-21T00:17:03.231Z,8.10
2022-09-21T00:18:03.245Z,8.10
2022-09-21T00:20:03.276Z,7.90
2022-09-21T00:21:03.288Z,7.90
2022-09-21T00:22:03.305Z,8.50
2022-09-21T00:23:03.320Z,8.30
2022-09-21T00:24:03.342Z,8.10
2022-09-21T00:25:03.353Z,8.00
2022-09-21T00:26:03.363Z,7.60
2022-09-21T00:27:03.397Z,7.90
2022-09-21T00:28:03.393Z,8.10
2022-09-21T00:29:03.408Z,8.30
2022-09-21T00:30:03.425Z,8.10
2022-09-21T00:31:03.437Z,8.00
2022-09-21T00:32:03.498Z,7.60
2022-09-21T00:33:03.467Z,7.50
2022-09-21T00:34:03.496Z,7.80
2022-09-21T00:35:03.496Z,7.60
2022-09-21T00:36:03.509Z,7.50
2022-09-21T00:37:03.526Z,7.50
2022-09-21T00:38:03.541Z,7.50
2022-09-21T00:39:03.554Z,7.50
2022-09-21T00:40:03.580Z,8.00
2022-09-21T00:41:03.586Z,8.30
2022-09-21T00:42:03.599Z,7.70
2022-09-21T00:43:03.632Z,7.50
2022-09-21T00:44:03.628Z,7.50
2022-09-21T00:45:03.641Z,7.30
2022-09-21T00:46:03.682Z,7.50
2022-09-21T00:47:03.684Z,7.20
2022-09-21T00:48:03.688Z,7.40
2022-09-21T00:49:03.701Z,7.20
2022-09-21T00:50:03.716Z,7.40
2022-09-21T00:51:03.733Z,7.20
2022-09-21T00:52:03.748Z,7.00
2022-09-21T00:53:03.759Z,7.10
2022-09-21T00:54:03.777Z,7.50
2022-09-21T00:55:03.788Z,7.20
2022-09-21T00:56:03.805Z,7.10
2022-09-21T00:57:03.818Z,7.30
2022-09-21T00:58:03.870Z,6.80
2022-09-21T00:59:03.868Z,6.70
2022-09-21T01:00:03.862Z,7.00
2022-09-21T01:01:03.924Z,7.00
2022-09-21T01:02:03.928Z,6.80
2022-09-21T01:03:03.907Z,7.10
2022-09-21T01:04:03.921Z,7.10
2022-09-21T01:05:03.935Z,6.80
2022-09-21T01:06:03.951Z,6.90
2022-09-21T01:07:03.966Z,6.70
2022-09-21T01:08:03.981Z,6.60
2022-09-21T01:09:04.400Z,6.80
2022-09-21T01:10:04.011Z,6.70
2022-09-21T01:11:04.026Z,6.50
2022-09-21T01:12:04.038Z,6.30
2022-09-21T01:13:04.053Z,6.20
2022-09-21T01:14:04.072Z,6.00
2022-09-21T01:15:04.100Z,6.50
2022-09-21T01:16:04.191Z,6.20
2022-09-21T01:17:04.111Z,6.30
2022-09-21T01:18:04.127Z,6.40
2022-09-21T01:19:04.142Z,6.20
2022-09-21T01:20:04.155Z,6.30
2022-09-21T01:21:04.171Z,6.30
2022-09-21T01:22:04.185Z,6.20
2022-09-21T01:23:04.301Z,6.10
2022-09-21T01:24:04.216Z,6.00
2022-09-21T01:25:04.230Z,5.90
2022-09-21T01:26:04.243Z,6.10
2022-09-21T01:27:04.258Z,6.10
2022-09-21T01:28:04.273Z,5.90
2022-09-21T01:29:04.287Z,6.00
2022-09-21T01:30:04.303Z,6.00
2022-09-21T01:31:04.334Z,5.90
2022-09-21T01:32:04.330Z,5.70
2022-09-21T01:33:04.351Z,5.60
2022-09-21T01:34:04.360Z,5.80
2022-09-21T01:35:04.476Z,5.90
2022-09-21T01:36:04.390Z,5.40
2022-09-21T01:37:04.402Z,5.60
2022-09-21T01:38:04.417Z,5.70
2022-09-21T01:39:04.432Z,5.70
2022-09-21T01:40:04.519Z,5.60
2022-09-21T01:41:04.462Z,5.70
2022-09-21T01:42:04.475Z,5.60
2022-09-21T01:43:04.490Z,5.90
2022-09-21T01:44:04.506Z,6.20
2022-09-21T01:45:04.521Z,6.00
2022-09-21T01:46:04.581Z,5.80
2022-09-21T01:47:04.568Z,5.70
2022-09-21T01:48:04.564Z,5.60
2022-09-21T01:49:04.580Z,5.40
2022-09-21T01:50:04.605Z,5.50
2022-09-21T01:51:04.607Z,6.00
2022-09-21T01:52:04.624Z,5.30
2022-09-21T01:53:04.638Z,5.60
2022-09-21T01:54:04.649Z,5.90
2022-09-21T01:55:04.665Z,5.20
2022-09-21T01:56:04.678Z,5.80
2022-09-21T01:57:04.693Z,5.30
2022-09-21T01:58:04.708Z,5.50
2022-09-21T01:59:04.727Z,5.70
2022-09-21T02:00:04.737Z,5.50
2022-09-21T02:01:04.847Z,5.80
2022-09-21T02:02:04.827Z,5.60
2022-09-21T02:03:04.797Z,5.80
2022-09-21T02:04:04.796Z,5.50
2022-09-21T02:05:04.807Z,5.50
2022-09-21T02:06:04.823Z,5.60
2022-09-21T02:07:04.840Z,5.80
2022-09-21T02:08:04.853Z,5.80
2022-09-21T02:09:04.868Z,5.70
2022-09-21T02:10:04.933Z,6.00
2022-09-21T02:11:04.897Z,6.20
2022-09-21T02:12:04.911Z,6.10
2022-09-21T02:13:04.923Z,6.10
2022-09-21T02:14:05.003Z,6.00
2022-09-21T02:15:04.955Z,5.80
2022-09-21T02:16:05.001Z,5.70
2022-09-21T02:17:04.982Z,5.80
2022-09-21T02:18:04.997Z,6.10
2022-09-21T02:19:05.029Z,5.80
2022-09-21T02:20:05.027Z,5.80
2022-09-21T02:21:05.041Z,6.00
2022-09-21T02:22:05.057Z,5.80
2022-09-21T02:23:05.071Z,5.80
2022-09-21T02:24:05.083Z,6.10
2022-09-21T02:25:05.100Z,5.90
2022-09-21T02:26:05.112Z,6.10
2022-09-21T02:27:05.129Z,6.40
2022-09-21T02:28:05.142Z,6.30
2022-09-21T02:29:05.155Z,6.10
2022-09-21T02:30:05.170Z,5.90
2022-09-21T02:31:05.256Z,6.40
2022-09-21T02:32:05.202Z,5.80
2022-09-21T02:33:05.212Z,6.10
2022-09-21T02:34:05.227Z,5.90
2022-09-21T02:35:05.259Z,6.20
2022-09-21T02:36:05.258Z,6.00
2022-09-21T02:37:05.271Z,6.20
2022-09-21T02:38:05.285Z,6.10
2022-09-21T02:39:05.299Z,5.80
2022-09-21T02:40:05.340Z,6.20
2022-09-21T02:41:05.328Z,6.20
2022-09-21T02:42:05.342Z,5.70
2022-09-21T02:43:05.357Z,6.10
2022-09-21T02:44:05.468Z,6.10
2022-09-21T02:45:05.385Z,6.20
2022-09-21T02:46:05.400Z,6.20
2022-09-21T02:47:05.415Z,5.90
2022-09-21T02:48:05.432Z,6.40
2022-09-21T02:49:05.444Z,6.20
2022-09-21T02:50:05.460Z,5.80
2022-09-21T02:51:06.099Z,6.30
2022-09-21T02:52:05.487Z,6.40
2022-09-21T02:53:05.516Z,6.20
2022-09-21T02:54:05.517Z,6.50
2022-09-21T02:55:05.530Z,5.90
2022-09-21T02:56:05.545Z,5.70
2022-09-21T02:57:05.559Z,6.40
2022-09-21T02:58:05.573Z,6.00
2022-09-21T02:59:05.759Z,6.20
2022-09-21T03:00:05.603Z,5.60
2022-09-21T03:01:05.666Z,6.20
2022-09-21T03:02:05.679Z,6.20
2022-09-21T03:03:05.649Z,6.50
2022-09-21T03:04:05.661Z,6.10
2022-09-21T03:05:05.674Z,6.40
2022-09-21T03:06:05.689Z,6.20
2022-09-21T03:07:05.721Z,6.20
2022-09-21T03:08:05.721Z,6.00
2022-09-21T03:09:05.734Z,6.50
2022-09-21T03:10:05.746Z,6.40
2022-09-21T03:11:05.762Z,6.30
2022-09-21T03:12:05.776Z,6.10
2022-09-21T03:13:05.788Z,5.70
2022-09-21T03:14:05.886Z,6.30
2022-09-21T03:15:05.817Z,6.30
2022-09-21T03:16:05.954Z,6.10
2022-09-21T03:17:05.846Z,6.20
2022-09-21T03:18:05.860Z,6.40
2022-09-21T03:19:05.875Z,6.60
2022-09-21T03:20:05.889Z,6.10
2022-09-21T03:21:05.902Z,6.40
2022-09-21T03:22:05.917Z,6.50
2022-09-21T03:23:06.083Z,6.30
2022-09-21T03:24:05.947Z,6.60
2022-09-21T03:25:05.960Z,6.30
2022-09-21T03:26:05.977Z,6.40
2022-09-21T03:27:05.989Z,6.60
2022-09-21T03:28:06.004Z,6.40
2022-09-21T03:29:06.194Z,6.40
2022-09-21T03:30:06.038Z,6.80
2022-09-21T03:31:06.095Z,6.20
2022-09-21T03:32:06.063Z,6.50
2022-09-21T03:33:06.080Z,6.40
2022-09-21T03:34:06.089Z,6.40
2022-09-21T03:35:06.105Z,6.30
2022-09-21T03:36:06.121Z,6.40
2022-09-21T03:37:06.131Z,6.30
2022-09-21T03:38:06.146Z,6.50
2022-09-21T03:39:06.182Z,6.40
2022-09-21T03:40:06.222Z,6.40
2022-09-21T03:41:06.190Z,6.60
2022-09-21T03:42:06.204Z,6.50
2022-09-21T03:43:06.219Z,6.20
2022-09-21T03:44:06.233Z,6.10
2022-09-21T03:45:06.247Z,6.20
2022-09-21T03:46:06.314Z,6.80
2022-09-21T03:47:06.276Z,6.40
2022-09-21T03:48:06.291Z,6.80
2022-09-21T03:49:06.305Z,6.40
2022-09-21T03:50:09.802Z,6.60
2022-09-21T03:51:06.333Z,6.60
2022-09-21T03:52:06.348Z,6.60
2022-09-21T03:53:06.362Z,6.50
2022-09-21T03:54:06.375Z,6.40
2022-09-21T03:55:06.593Z,6.90
2022-09-21T03:56:06.404Z,6.50
2022-09-21T03:57:06.424Z,6.70
2022-09-21T03:58:06.434Z,6.50
2022-09-21T03:59:09.485Z,6.60
2022-09-21T04:00:06.463Z,6.80
2022-09-21T04:01:06.600Z,6.90
2022-09-21T04:02:06.492Z,6.90
2022-09-21T04:03:06.505Z,6.60
2022-09-21T04:04:06.521Z,6.90
2022-09-21T04:05:06.533Z,7.00
2022-09-21T04:06:06.548Z,6.50
2022-09-21T04:07:06.561Z,6.70
2022-09-21T04:08:06.576Z,7.00
2022-09-21T04:09:06.589Z,7.00
2022-09-21T04:10:06.609Z,6.80
2022-09-21T04:11:06.713Z,6.80
2022-09-21T04:12:06.632Z,6.80
2022-09-21T04:13:06.647Z,6.60
2022-09-21T04:14:06.661Z,7.00
2022-09-21T04:15:06.675Z,7.10
2022-09-21T04:16:06.733Z,6.60
2022-09-21T04:17:06.703Z,6.60
2022-09-21T04:18:06.717Z,7.00
2022-09-21T04:19:06.824Z,7.00
2022-09-21T04:20:06.749Z,7.10
2022-09-21T04:21:06.762Z,6.80
2022-09-21T04:22:06.774Z,6.80
2022-09-21T04:23:06.800Z,7.40
2022-09-21T04:24:06.802Z,6.80
2022-09-21T04:25:06.817Z,6.40
2022-09-21T04:26:06.831Z,6.80
2022-09-21T04:27:07.485Z,6.80
2022-09-21T04:28:06.859Z,6.90
2022-09-21T04:29:07.169Z,6.80
2022-09-21T04:30:06.887Z,6.70
2022-09-21T04:31:06.964Z,6.60
2022-09-21T04:32:06.924Z,6.90
2022-09-21T04:33:06.930Z,6.90
2022-09-21T04:34:06.944Z,6.90
2022-09-21T04:35:06.959Z,6.80
2022-09-21T04:36:06.971Z,7.00
2022-09-21T04:37:06.987Z,6.90
2022-09-21T04:38:07.000Z,6.70
2022-09-21T04:39:07.014Z,6.60
2022-09-21T04:40:07.090Z,6.80
2022-09-21T04:41:07.043Z,6.60
2022-09-21T04:42:07.056Z,7.10
2022-09-21T04:43:07.198Z,7.10
2022-09-21T04:44:07.085Z,7.40
2022-09-21T04:45:07.100Z,7.30
2022-09-21T04:46:07.162Z,6.50
2022-09-21T04:47:07.128Z,7.50
2022-09-21T04:48:07.142Z,6.70
2022-09-21T04:49:07.155Z,6.60
2022-09-21T04:50:07.172Z,7.00
2022-09-21T04:51:07.185Z,7.40
2022-09-21T04:52:07.198Z,7.20
2022-09-21T04:53:07.213Z,7.50
2022-09-21T04:54:07.228Z,7.50
2022-09-21T04:55:07.241Z,7.00
2022-09-21T04:56:07.260Z,7.00
2022-09-21T04:57:07.269Z,6.80
2022-09-21T04:58:07.282Z,7.10
2022-09-21T04:59:07.351Z,6.90
2022-09-21T05:00:07.313Z,7.50
2022-09-21T05:01:07.392Z,7.50
2022-09-21T05:02:07.340Z,7.10
2022-09-21T05:03:07.353Z,6.90
2022-09-21T05:04:07.371Z,7.00
2022-09-21T05:05:07.381Z,7.00
2022-09-21T05:06:07.395Z,7.00
2022-09-21T05:07:07.411Z,7.20
2022-09-21T05:08:07.424Z,7.10
2022-09-21T05:09:07.437Z,6.90
2022-09-21T05:10:07.452Z,7.30
2022-09-21T05:11:07.465Z,6.90
2022-09-21T05:12:07.480Z,7.00
2022-09-21T05:13:07.494Z,6.90
2022-09-21T05:14:07.508Z,6.60
2022-09-21T05:15:07.540Z,7.00
2022-09-21T05:16:07.594Z,6.90
2022-09-21T05:17:07.550Z,7.00
2022-09-21T05:18:07.564Z,6.60
2022-09-21T05:19:07.579Z,6.60
2022-09-21T05:20:07.594Z,6.70
2022-09-21T05:21:07.612Z,6.60
2022-09-21T05:22:07.620Z,7.30
2022-09-21T05:23:07.635Z,7.50
2022-09-21T05:24:07.649Z,6.80
2022-09-21T05:25:07.674Z,7.00
2022-09-21T05:26:07.676Z,6.90
2022-09-21T05:27:07.691Z,6.40
2022-09-21T05:28:07.718Z,7.00
2022-09-21T05:29:07.719Z,6.80
2022-09-21T05:30:07.732Z,7.00
2022-09-21T05:31:17.574Z,6.70
2022-09-21T05:32:07.761Z,6.90
2022-09-21T05:33:07.776Z,6.90
2022-09-21T05:34:07.874Z,7.10
2022-09-21T05:35:07.807Z,6.90
2022-09-21T05:36:07.818Z,7.00
2022-09-21T05:37:07.830Z,7.20
2022-09-21T05:38:07.845Z,6.60
2022-09-21T05:39:07.860Z,7.10
2022-09-21T05:40:07.916Z,6.70
2022-09-21T05:41:07.886Z,7.10
2022-09-21T05:42:07.902Z,7.20
2022-09-21T05:43:07.916Z,7.00
2022-09-21T05:44:07.930Z,7.10
2022-09-21T05:45:07.943Z,6.80
2022-09-21T05:46:08.038Z,7.10
2022-09-21T05:47:07.989Z,6.50
2022-09-21T05:48:07.988Z,6.90
2022-09-21T05:49:07.998Z,6.70
2022-09-21T05:50:08.014Z,7.30
2022-09-21T05:51:08.028Z,7.10
2022-09-21T05:52:08.041Z,6.80
2022-09-21T05:53:08.056Z,6.50
2022-09-21T05:54:08.070Z,7.10
2022-09-21T05:55:08.090Z,6.80
2022-09-21T05:56:08.097Z,7.00
2022-09-21T05:57:08.112Z,6.80
2022-09-21T05:58:08.127Z,6.90
2022-09-21T05:59:08.138Z,6.80
2022-09-21T06:00:08.153Z,7.00
2022-09-21T06:01:08.227Z,6.50
2022-09-21T06:02:08.235Z,6.90
2022-09-21T06:03:08.241Z,6.90
2022-09-21T06:04:08.235Z,6.90
2022-09-21T06:05:08.223Z,6.50
2022-09-21T06:06:08.237Z,6.50
2022-09-21T06:07:08.252Z,6.60
2022-09-21T06:08:08.266Z,7.00
2022-09-21T06:09:08.277Z,6.60
2022-09-21T06:10:08.293Z,6.80
2022-09-21T06:11:08.307Z,7.10
2022-09-21T06:12:08.320Z,7.00
2022-09-21T06:13:08.333Z,6.90
2022-09-21T06:14:08.349Z,6.90
2022-09-21T06:15:08.367Z,6.70
2022-09-21T06:16:08.380Z,6.30
2022-09-21T06:17:08.389Z,6.60
2022-09-21T06:18:08.407Z,6.90
2022-09-21T06:19:08.437Z,6.90
2022-09-21T06:20:08.432Z,6.60
2022-09-21T06:21:08.447Z,7.30
2022-09-21T06:22:08.460Z,6.90
2022-09-21T06:23:08.475Z,6.70
2022-09-21T06:24:08.488Z,7.00
2022-09-21T06:25:08.501Z,6.80
2022-09-21T06:26:08.517Z,7.00
2022-09-21T06:27:08.532Z,6.80
2022-09-21T06:28:08.545Z,6.50
2022-09-21T06:29:08.558Z,6.70
2022-09-21T06:30:08.571Z,7.00
2022-09-21T06:31:08.647Z,6.60
2022-09-21T06:32:08.599Z,6.60
2022-09-21T06:33:09.018Z,6.70
2022-09-21T06:34:08.702Z,6.60
2022-09-21T06:35:08.662Z,6.60
2022-09-21T06:36:08.657Z,6.70
2022-09-21T06:37:08.669Z,7.00
2022-09-21T06:38:08.686Z,6.50
2022-09-21T06:39:08.697Z,6.70
2022-09-21T06:40:08.730Z,6.70
2022-09-21T06:41:08.723Z,6.80
2022-09-21T06:42:08.744Z,6.70
2022-09-21T06:43:08.752Z,6.70
2022-09-21T06:44:08.767Z,6.80
2022-09-21T06:45:08.779Z,6.60
2022-09-21T06:46:08.818Z,6.20
2022-09-21T06:47:08.808Z,6.70
2022-09-21T06:48:08.822Z,6.60
2022-09-21T06:49:08.835Z,7.00
2022-09-21T06:50:08.851Z,6.60
2022-09-21T06:51:08.883Z,6.80
2022-09-21T06:52:08.877Z,6.60
2022-09-21T06:53:08.892Z,6.90
2022-09-21T06:54:08.905Z,6.80
2022-09-21T06:55:08.919Z,6.20
2022-09-21T06:56:08.933Z,6.70
2022-09-21T06:57:08.948Z,6.80
2022-09-21T06:58:08.960Z,6.60
2022-09-21T06:59:08.973Z,6.40
2022-09-21T07:00:08.989Z,6.80
2022-09-21T07:01:09.113Z,6.60
2022-09-21T07:02:09.169Z,6.90
2022-09-21T07:03:09.032Z,6.70
2022-09-21T07:04:09.115Z,6.80
2022-09-21T07:05:09.060Z,6.60
2022-09-21T07:06:09.073Z,6.90
2022-09-21T07:07:09.103Z,6.70
2022-09-21T07:10:05.007Z,6.80
2022-09-21T07:10:14.357Z,6.60
2022-09-21T07:11:09.140Z,6.50
2022-09-21T07:12:09.156Z,6.70
2022-09-21T07:13:09.169Z,7.30
2022-09-21T07:14:09.184Z,6.40
2022-09-21T07:15:09.197Z,6.90
2022-09-21T07:16:09.353Z,6.90
2022-09-21T07:17:09.558Z,7.20
2022-09-21T07:18:09.237Z,6.60
2022-09-21T07:19:11.299Z,6.80
2022-09-21T07:20:09.266Z,6.90
2022-09-21T07:21:09.279Z,6.70
2022-09-21T07:22:09.293Z,6.40
2022-09-21T07:23:09.324Z,6.90
2022-09-21T07:24:12.190Z,6.60
2022-09-21T07:25:09.335Z,7.00
2022-09-21T07:26:09.351Z,6.20
2022-09-21T07:27:09.363Z,6.70
2022-09-21T07:28:09.376Z,6.80
2022-09-21T07:29:09.394Z,6.60
2022-09-21T07:30:09.409Z,6.90
2022-09-21T07:31:09.417Z,6.80
2022-09-21T07:32:09.431Z,6.60
2022-09-21T07:33:09.447Z,7.30
2022-09-21T07:34:09.460Z,7.10
2022-09-21T07:35:09.477Z,6.90
2022-09-21T07:36:09.487Z,6.90
2022-09-21T07:37:09.500Z,6.90
2022-09-21T07:38:10.323Z,7.10
2022-09-21T07:39:09.567Z,7.00
2022-09-21T07:40:09.657Z,7.10
2022-09-21T07:41:09.555Z,6.60
2022-09-21T07:42:09.568Z,6.50
2022-09-21T07:43:09.583Z,6.90
2022-09-21T07:44:09.596Z,6.70
2022-09-21T07:45:09.611Z,7.10
2022-09-21T07:46:09.747Z,6.30
2022-09-21T07:47:09.640Z,6.50
2022-09-21T07:48:09.652Z,7.10
2022-09-21T07:49:09.665Z,7.00
2022-09-21T07:50:09.681Z,6.80
2022-09-21T07:51:09.693Z,7.20
2022-09-21T07:52:11.196Z,6.70
2022-09-21T07:53:09.721Z,6.70
2022-09-21T07:54:09.736Z,7.00
2022-09-21T07:55:09.765Z,7.40
2022-09-21T07:56:09.763Z,7.10
2022-09-21T07:57:09.777Z,6.80
2022-09-21T07:58:09.788Z,6.80
2022-09-21T07:59:09.807Z,6.80
2022-09-21T08:00:09.824Z,6.70
2022-09-21T08:01:09.896Z,6.80
2022-09-21T08:02:09.896Z,6.60
2022-09-21T08:03:09.859Z,6.60
2022-09-21T08:04:09.942Z,7.40
2022-09-21T08:05:09.886Z,6.60
2022-09-21T08:06:09.908Z,6.70
2022-09-21T08:07:09.912Z,6.70
2022-09-21T08:08:09.925Z,6.80
2022-09-21T08:09:09.958Z,6.70
2022-09-21T08:10:09.955Z,6.90
2022-09-21T08:11:09.987Z,6.50
2022-09-21T08:12:09.983Z,6.90
2022-09-21T08:13:09.995Z,6.20
2022-09-21T08:14:10.010Z,6.20
2022-09-21T08:15:24.993Z,6.40
2022-09-21T08:16:10.198Z,6.50
2022-09-21T08:17:10.056Z,6.50
2022-09-21T08:18:10.064Z,6.60
2022-09-21T08:19:10.077Z,6.20
2022-09-21T08:20:10.093Z,6.20
2022-09-21T08:21:12.045Z,6.10
2022-09-21T08:22:10.125Z,6.00
2022-09-21T08:23:10.135Z,6.20
2022-09-21T08:24:10.147Z,6.00
2022-09-21T08:25:10.159Z,5.80
2022-09-21T08:26:10.175Z,6.00
2022-09-21T08:27:10.203Z,5.40
2022-09-21T08:28:10.332Z,6.50
2022-09-21T08:29:10.215Z,5.90
2022-09-21T08:30:10.229Z,5.90
2022-09-21T08:31:10.343Z,5.70
2022-09-21T08:32:15.836Z,5.80
2022-09-21T08:33:10.268Z,5.70
2022-09-21T08:34:10.283Z,6.20
2022-09-21T08:35:10.297Z,5.70
2022-09-21T08:36:10.310Z,6.00
2022-09-21T08:37:10.325Z,5.90
2022-09-21T08:38:10.337Z,5.90
2022-09-21T08:39:10.352Z,6.00
2022-09-21T08:40:10.441Z,6.00
2022-09-21T08:41:10.379Z,5.80
2022-09-21T08:42:10.393Z,5.60
2022-09-21T08:43:10.424Z,5.70
2022-09-21T08:44:10.422Z,5.60
2022-09-21T08:45:10.433Z,5.90
2022-09-21T08:46:10.448Z,5.70
2022-09-21T08:47:10.468Z,6.10
2022-09-21T08:48:10.475Z,5.60
2022-09-21T08:49:10.494Z,5.50
2022-09-21T08:50:10.501Z,5.60
2022-09-21T08:51:10.515Z,5.60
2022-09-21T08:52:13.218Z,5.90
2022-09-21T08:53:10.542Z,5.80
2022-09-21T08:54:10.556Z,5.20
2022-09-21T08:55:14.177Z,5.30
2022-09-21T08:56:10.789Z,5.20
2022-09-21T08:57:10.596Z,5.30
2022-09-21T08:58:10.611Z,5.60
2022-09-21T08:59:10.642Z,5.50
2022-09-21T09:00:10.638Z,5.60
2022-09-21T09:01:10.699Z,5.20
2022-09-21T09:02:10.767Z,5.20
2022-09-21T09:03:10.680Z,5.40
2022-09-21T09:04:10.694Z,5.20
2022-09-21T09:05:10.707Z,5.60
2022-09-21T09:06:10.723Z,5.10
2022-09-21T09:07:10.739Z,5.10
2022-09-21T09:08:10.746Z,5.50
2022-09-21T09:09:10.760Z,4.80
2022-09-21T09:10:10.774Z,5.30
2022-09-21T09:11:10.787Z,5.50
2022-09-21T09:12:11.327Z,5.30
2022-09-21T09:13:10.817Z,5.10
2022-09-21T09:14:10.828Z,5.30
2022-09-21T09:15:10.860Z,5.00
2022-09-21T09:16:10.906Z,5.30
2022-09-21T09:17:10.870Z,4.90
2022-09-21T09:18:10.882Z,5.20
2022-09-21T09:19:10.897Z,5.00
2022-09-21T09:20:10.914Z,5.30
2022-09-21T09:21:11.027Z,5.30
2022-09-21T09:22:10.943Z,5.30
2022-09-21T09:23:10.958Z,5.00
2022-09-21T09:24:10.968Z,5.20
2022-09-21T09:25:10.977Z,5.40
2022-09-21T09:26:10.991Z,5.10
2022-09-21T09:27:11.007Z,5.30
2022-09-21T09:28:11.024Z,5.50
2022-09-21T09:29:11.034Z,5.50
2022-09-21T09:30:11.049Z,5.10
2022-09-21T09:31:11.121Z,5.10
2022-09-21T09:32:11.074Z,5.60
2022-09-21T09:33:11.089Z,5.40
2022-09-21T09:34:11.100Z,5.60
2022-09-21T09:35:11.115Z,5.40
2022-09-21T09:36:11.129Z,5.30
2022-09-21T09:37:11.142Z,5.40
2022-09-21T09:38:11.157Z,5.70
2022-09-21T09:39:11.168Z,5.10
2022-09-21T09:40:11.211Z,5.30
2022-09-21T09:41:11.195Z,5.70
2022-09-21T09:42:11.208Z,5.30
2022-09-21T09:43:11.223Z,5.40
2022-09-21T09:44:11.244Z,5.30
2022-09-21T09:45:11.250Z,5.50
2022-09-21T09:46:13.339Z,5.40
2022-09-21T09:47:11.296Z,5.40
2022-09-21T09:48:11.291Z,5.20
2022-09-21T09:49:11.304Z,5.10
2022-09-21T09:50:11.320Z,5.40
2022-09-21T09:51:11.337Z,5.40
2022-09-21T09:52:11.346Z,5.40
2022-09-21T09:53:11.358Z,5.50
2022-09-21T09:54:11.433Z,5.40
2022-09-21T09:55:11.386Z,5.10
2022-09-21T09:56:11.402Z,5.50
2022-09-21T09:57:11.413Z,5.40
2022-09-21T09:58:11.427Z,4.90
2022-09-21T09:59:11.441Z,5.20
2022-09-21T10:00:11.456Z,5.10
2022-09-21T10:01:11.468Z,5.30
2022-09-21T10:02:11.582Z,5.50
2022-09-21T10:03:11.516Z,5.00
2022-09-21T10:04:11.554Z,5.50
2022-09-21T10:05:11.523Z,5.30
2022-09-21T10:06:11.537Z,5.20
2022-09-21T10:07:11.550Z,5.00
2022-09-21T10:08:11.564Z,5.20
2022-09-21T10:09:11.577Z,5.20
2022-09-21T10:10:11.593Z,5.40
2022-09-21T10:11:11.605Z,5.00
2022-09-21T10:12:11.616Z,5.10
2022-09-21T10:13:11.631Z,5.50
2022-09-21T10:14:11.647Z,5.10
2022-09-21T10:15:11.659Z,5.20
2022-09-21T10:16:11.736Z,5.10
2022-09-21T10:17:11.687Z,5.40
2022-09-21T10:18:11.700Z,5.30
2022-09-21T10:19:11.731Z,5.10
2022-09-21T10:20:11.727Z,4.90
2022-09-21T10:21:11.740Z,5.00
2022-09-21T10:22:11.754Z,5.40
2022-09-21T10:23:11.766Z,5.00
2022-09-21T10:24:11.780Z,5.20
2022-09-21T10:25:11.793Z,5.00
2022-09-21T10:26:11.808Z,5.00
2022-09-21T10:27:11.828Z,5.20
2022-09-21T10:28:11.837Z,5.00
2022-09-21T10:29:11.847Z,5.10
2022-09-21T10:30:11.861Z,5.00
2022-09-21T10:31:11.934Z,5.20
2022-09-21T10:32:14.565Z,5.00
2022-09-21T10:33:11.901Z,5.00
2022-09-21T10:34:11.918Z,4.70
2022-09-21T10:35:11.955Z,4.80
2022-09-21T10:36:11.945Z,4.90
2022-09-21T10:37:11.958Z,4.80
2022-09-21T10:38:11.969Z,4.90
2022-09-21T10:39:11.984Z,4.70
2022-09-21T10:40:12.048Z,4.90
2022-09-21T10:41:12.010Z,4.80
2022-09-21T10:42:12.024Z,5.00
2022-09-21T10:43:12.038Z,4.90
2022-09-21T10:44:12.051Z,4.90
2022-09-21T10:45:12.064Z,4.80
2022-09-21T10:46:12.118Z,4.70
2022-09-21T10:47:14.613Z,4.60
2022-09-21T10:48:12.107Z,4.60
2022-09-21T10:49:12.121Z,4.60
2022-09-21T10:50:12.134Z,4.60
2022-09-21T10:51:12.166Z,4.60
2022-09-21T10:52:12.163Z,4.40
2022-09-21T10:53:12.174Z,4.90
2022-09-21T10:54:12.187Z,4.40
2022-09-21T10:55:12.201Z,4.20
2022-09-21T10:56:16.093Z,4.30
2022-09-21T10:57:12.226Z,4.70
2022-09-21T10:58:12.241Z,4.50
2022-09-21T10:59:12.254Z,4.30
2022-09-21T11:00:12.270Z,4.30
2022-09-21T11:01:12.334Z,4.60
2022-09-21T11:02:12.334Z,4.40
2022-09-21T11:03:12.319Z,4.30
2022-09-21T11:04:12.323Z,4.40
2022-09-21T11:05:12.336Z,4.60
2022-09-21T11:06:12.351Z,4.40
2022-09-21T11:07:12.383Z,4.30
2022-09-21T11:08:12.377Z,4.40
2022-09-21T11:09:12.393Z,4.10
2022-09-21T11:10:12.404Z,4.50
2022-09-21T11:11:12.419Z,4.30
2022-09-21T11:12:12.431Z,4.10
2022-09-21T11:13:12.446Z,4.30
2022-09-21T11:14:12.456Z,4.20
2022-09-21T11:15:12.475Z,3.70
2022-09-21T11:16:12.576Z,3.70
2022-09-21T11:17:12.501Z,4.00
2022-09-21T11:18:12.513Z,3.90
2022-09-21T11:19:12.541Z,4.00
2022-09-21T11:20:12.542Z,3.60
2022-09-21T11:21:12.553Z,3.70
2022-09-21T11:22:12.568Z,4.00
2022-09-21T11:23:12.604Z,3.80
2022-09-21T11:24:12.596Z,4.20
2022-09-21T11:25:12.611Z,3.80
2022-09-21T11:26:12.622Z,3.70
2022-09-21T11:27:12.636Z,4.20
2022-09-21T11:28:12.647Z,3.70
2022-09-21T11:29:12.662Z,3.80
2022-09-21T11:30:12.676Z,4.00
2022-09-21T11:31:12.716Z,3.80
2022-09-21T11:32:12.703Z,3.80
2022-09-21T11:33:12.717Z,3.60
2022-09-21T11:34:12.729Z,3.40
2022-09-21T11:35:12.751Z,3.30
2022-09-21T11:36:12.759Z,3.70
2022-09-21T11:37:12.768Z,3.60
2022-09-21T11:38:12.784Z,3.40
2022-09-21T11:39:12.818Z,3.60
2022-09-21T11:40:12.891Z,3.40
2022-09-21T11:41:12.823Z,3.10
2022-09-21T11:42:12.837Z,3.60
2022-09-21T11:43:12.851Z,3.30
2022-09-21T11:44:16.728Z,3.30
2022-09-21T11:45:12.877Z,3.30
2022-09-21T11:46:12.983Z,3.40
2022-09-21T11:47:12.917Z,3.30
2022-09-21T11:48:12.919Z,3.30
2022-09-21T11:49:12.931Z,3.60
2022-09-21T11:50:29.723Z,3.10
2022-09-21T11:51:12.966Z,3.20
2022-09-21T11:52:12.978Z,3.30
2022-09-21T11:53:12.989Z,3.00
2022-09-21T11:54:13.000Z,3.10
2022-09-21T11:55:13.033Z,3.10
2022-09-21T11:56:13.028Z,3.10
2022-09-21T11:57:13.050Z,3.10
2022-09-21T11:58:13.056Z,3.20
2022-09-21T11:59:13.070Z,3.10
2022-09-21T12:00:13.085Z,3.20
2022-09-21T12:01:13.109Z,3.20
2022-09-21T12:02:13.267Z,3.00
2022-09-21T12:03:13.125Z,3.10
2022-09-21T12:04:13.138Z,3.00
2022-09-21T12:05:13.150Z,3.20
2022-09-21T12:06:13.174Z,3.00
2022-09-21T12:07:13.179Z,2.90
2022-09-21T12:08:13.193Z,2.90
2022-09-21T12:09:13.204Z,2.80
2022-09-21T12:10:13.219Z,2.70
2022-09-21T12:11:13.264Z,3.00
2022-09-21T12:12:13.247Z,2.80
2022-09-21T12:13:13.260Z,2.90
2022-09-21T12:14:13.291Z,3.00
2022-09-21T12:15:13.333Z,2.70
2022-09-21T12:16:13.300Z,3.10
2022-09-21T12:17:13.314Z,2.80
2022-09-21T12:18:13.327Z,3.20
2022-09-21T12:19:13.341Z,2.80
2022-09-21T12:20:13.356Z,2.90
2022-09-21T12:21:13.367Z,2.90
2022-09-21T12:22:13.381Z,2.80
2022-09-21T12:23:13.398Z,2.70
2022-09-21T12:24:13.410Z,2.80
2022-09-21T12:25:13.446Z,2.70
2022-09-21T12:26:13.435Z,2.90
2022-09-21T12:27:13.472Z,2.50
2022-09-21T12:28:13.464Z,2.70
2022-09-21T12:29:13.479Z,3.00
2022-09-21T12:30:13.491Z,2.80
2022-09-21T12:31:13.546Z,3.00
2022-09-21T12:32:13.518Z,2.50
2022-09-21T12:33:13.535Z,2.70
2022-09-21T12:34:13.545Z,2.90
2022-09-21T12:35:13.559Z,2.60
2022-09-21T12:36:13.578Z,2.70
2022-09-21T12:37:13.586Z,2.70
2022-09-21T12:38:13.600Z,2.70
2022-09-21T12:39:13.613Z,2.70
2022-09-21T12:40:13.658Z,2.70
2022-09-21T12:41:13.767Z,2.90
2022-09-21T12:42:13.653Z,2.80
2022-09-21T12:43:13.888Z,2.80
2022-09-21T12:44:13.691Z,2.80
2022-09-21T12:45:13.696Z,2.90
2022-09-21T12:46:13.795Z,2.60
2022-09-21T12:47:13.724Z,3.10
2022-09-21T12:48:13.738Z,2.80
2022-09-21T12:49:13.750Z,3.00
2022-09-21T12:50:13.836Z,2.30
2022-09-21T12:51:13.779Z,2.70
2022-09-21T12:52:13.791Z,2.80
2022-09-21T12:53:13.811Z,2.80
2022-09-21T12:54:13.820Z,2.50
2022-09-21T12:55:16.578Z,2.50
2022-09-21T12:56:13.847Z,2.50
2022-09-21T12:57:38.162Z,2.60
2022-09-21T12:58:16.082Z,2.90
2022-09-21T12:59:13.909Z,2.40
2022-09-21T13:00:14.093Z,2.80
2022-09-21T13:01:14.067Z,2.90
2022-09-21T13:02:14.106Z,2.40
2022-09-21T13:03:13.943Z,2.70
2022-09-21T13:04:13.959Z,2.60
2022-09-21T13:05:13.970Z,2.90
2022-09-21T13:06:13.984Z,2.50
2022-09-21T13:07:13.998Z,2.50
2022-09-21T13:08:14.010Z,2.60
2022-09-21T13:09:14.299Z,2.60
2022-09-21T13:10:14.040Z,2.70
2022-09-21T13:11:14.052Z,2.50
2022-09-21T13:12:14.065Z,2.50
2022-09-21T13:13:14.078Z,2.90
2022-09-21T13:14:14.091Z,2.70
2022-09-21T13:15:14.128Z,2.70
2022-09-21T13:16:14.161Z,2.40
2022-09-21T13:17:14.133Z,2.40
2022-09-21T13:18:14.148Z,2.40
2022-09-21T13:19:14.163Z,2.60
2022-09-21T13:20:14.176Z,2.50